Time;durP1;ratioP1;P1;durP2;ratioP2;P2;SDS_P1;SDS_P2;PMS_P1;PMS_P2;Temp;Humidity;BMP_temperature;BMP_pressure;BME280_temperature;BME280_humidity;BME280_pressure;Samples;Min_cycle;Max_cycle;Signal;HPM_P1;HPM_P2
2022/12/28 00:01:03;;;;;;;8.88;1.63;;;7.40;99.50;;;;;;5093813;28;20089;-80
2022/12/28 00:03:29;;;;;;;7.88;1.42;;;7.20;99.40;;;;;;5093760;28;20201;-79
2022/12/28 00:05:54;;;;;;;10.80;1.60;;;7.30;99.40;;;;;;5092665;28;20032;-80
2022/12/28 00:08:20;;;;;;;7.50;1.17;;;7.20;99.30;;;;;;5094397;28;20101;-80
2022/12/28 00:10:46;;;;;;;3.45;1.13;;;7.20;99.30;;;;;;5093663;28;20039;-81
2022/12/28 00:13:11;;;;;;;6.90;1.45;;;7.20;99.40;;;;;;5093335;28;20127;-79
2022/12/28 00:15:37;;;;;;;5.18;1.15;;;7.20;99.40;;;;;;5093365;28;20428;-80
2022/12/28 00:18:03;;;;;;;6.07;1.33;;;7.20;99.40;;;;;;5092591;28;20433;-77
2022/12/28 00:20:28;;;;;;;5.63;1.10;;;7.20;99.40;;;;;;5092886;28;20020;-78
2022/12/28 00:22:54;;;;;;;4.30;1.20;;;7.10;99.40;;;;;;5093837;28;20024;-80
2022/12/28 00:25:20;;;;;;;7.72;1.33;;;7.20;99.50;;;;;;5093444;28;20020;-79
2022/12/28 00:27:45;;;;;;;9.68;1.60;;;7.10;99.50;;;;;;5093710;28;20032;-79
2022/12/28 00:30:11;;;;;;;4.75;1.23;;;7.10;99.40;;;;;;5092257;28;20505;-79
2022/12/28 00:32:37;;;;;;;6.05;1.40;;;7.10;99.40;;;;;;5093724;28;20020;-78
2022/12/28 00:35:03;;;;;;;8.05;1.52;;;7.00;99.40;;;;;;5093389;28;20036;-79
2022/12/28 00:37:29;;;;;;;6.53;1.67;;;7.00;99.50;;;;;;5093313;28;20036;-80
2022/12/28 00:39:54;;;;;;;4.93;1.25;;;7.10;99.60;;;;;;5093270;28;20118;-78
2022/12/28 00:42:20;;;;;;;5.65;1.50;;;7.10;99.50;;;;;;5091936;28;20074;-80
2022/12/28 00:44:45;;;;;;;5.43;1.50;;;7.00;99.40;;;;;;5093334;28;20028;-78
2022/12/28 00:47:11;;;;;;;7.90;1.13;;;7.00;99.40;;;;;;5092999;28;20025;-80
2022/12/28 00:49:37;;;;;;;9.68;1.52;;;6.90;99.40;;;;;;5091914;28;20308;-78
2022/12/28 00:52:02;;;;;;;4.75;1.45;;;6.90;99.30;;;;;;5093282;28;20024;-79
2022/12/28 00:54:28;;;;;;;6.57;1.85;;;6.90;99.30;;;;;;5093244;28;20107;-78
2022/12/28 00:56:54;;;;;;;7.47;1.42;;;6.90;99.40;;;;;;5091637;28;20024;-78
2022/12/28 00:59:19;;;;;;;9.07;1.52;;;6.90;99.40;;;;;;5092572;28;20020;-78
2022/12/28 01:01:45;;;;;;;7.57;1.27;;;6.80;99.60;;;;;;5091978;28;20082;-79
2022/12/28 01:04:11;;;;;;;10.70;1.73;;;6.80;99.30;;;;;;5091694;28;20077;-78
2022/12/28 01:06:36;;;;;;;3.58;1.08;;;6.80;99.30;;;;;;5092665;28;20039;-79
2022/12/28 01:09:02;;;;;;;6.07;1.52;;;6.80;99.20;;;;;;5091613;28;20024;-78
2022/12/28 01:11:30;;;;;;;4.80;1.33;;;6.80;99.30;;;;;;5092000;28;20022;-80
2022/12/28 01:13:58;;;;;;;6.20;1.48;;;6.80;99.20;;;;;;5091294;28;20517;-79
2022/12/28 01:16:35;;;;;;;10.15;1.40;;;6.90;99.30;;;;;;5091398;28;20036;-77
2022/12/28 01:19:04;;;;;;;6.00;1.20;;;6.80;99.10;;;;;;5091455;28;20028;-79
2022/12/28 01:21:32;;;;;;;5.57;1.17;;;6.80;99.20;;;;;;5092383;28;20032;-78
2022/12/28 01:24:00;;;;;;;4.63;1.17;;;6.80;99.20;;;;;;5092622;28;20018;-79
2022/12/28 01:26:27;;;;;;;11.95;1.58;;;6.80;99.20;;;;;;5092684;28;20020;-77
2022/12/28 01:28:53;;;;;;;4.80;1.38;;;6.90;99.20;;;;;;5092463;28;20036;-78
2022/12/28 01:31:20;;;;;;;10.50;1.00;;;6.80;99.20;;;;;;5092293;28;20028;-79
2022/12/28 01:33:46;;;;;;;4.03;1.20;;;6.80;99.20;;;;;;5092072;28;20588;-80
2022/12/28 01:36:16;;;;;;;11.40;1.58;;;6.80;99.20;;;;;;5091837;28;20123;-78
2022/12/28 01:38:43;;;;;;;3.40;0.90;;;6.80;99.20;;;;;;5092337;28;20035;-77
2022/12/28 01:41:11;;;;;;;4.70;1.00;;;6.90;99.30;;;;;;5091977;28;20421;-78
2022/12/28 01:43:42;;;;;;;7.35;1.33;;;6.80;99.20;;;;;;5091706;28;20257;-79
2022/12/28 01:46:16;;;;;;;3.30;1.02;;;6.80;99.20;;;;;;5091788;28;20089;-79
2022/12/28 01:49:00;;;;;;;6.72;1.45;;;6.80;99.30;;;;;;5090648;28;20055;-79
2022/12/28 01:51:28;;;;;;;7.55;1.02;;;6.80;99.30;;;;;;5091912;28;20048;-80
2022/12/28 01:53:58;;;;;;;6.82;1.27;;;6.80;99.20;;;;;;5092137;28;20073;-79
2022/12/28 01:56:24;;;;;;;4.57;1.50;;;6.80;99.30;;;;;;5092089;28;20042;-77
2022/12/28 01:58:50;;;;;;;11.63;1.20;;;6.90;99.30;;;;;;5091745;28;20458;-79
2022/12/28 02:01:16;;;;;;;6.55;1.33;;;6.90;99.40;;;;;;5091406;28;20088;-79
2022/12/28 02:03:42;;;;;;;5.68;1.30;;;6.90;99.30;;;;;;5091455;28;20053;-78
2022/12/28 02:06:11;;;;;;;4.68;1.02;;;6.80;99.30;;;;;;5091705;28;20034;-79
2022/12/28 02:08:59;;;;;;;6.05;1.17;;;6.80;99.30;;;;;;5091857;28;20100;-78
2022/12/28 02:11:25;;;;;;;8.98;2.10;;;6.80;99.30;;;;;;5091535;28;20138;-77
2022/12/28 02:13:52;;;;;;;9.13;1.50;;;6.90;99.40;;;;;;5090045;28;20075;-80
2022/12/28 02:16:18;;;;;;;3.17;1.00;;;6.80;99.40;;;;;;5090359;28;20036;-78
2022/12/28 02:18:46;;;;;;;5.35;1.38;;;6.90;99.40;;;;;;5091288;28;20465;-77
2022/12/28 02:21:17;;;;;;;3.45;1.10;;;6.90;99.40;;;;;;5091292;28;20039;-78
2022/12/28 02:24:20;;;;;;;4.80;0.98;;;6.90;99.40;;;;;;5091644;28;20024;-79
2022/12/28 02:26:57;;;;;;;5.13;1.23;;;6.90;99.50;;;;;;5089946;28;20067;-79
2022/12/28 02:29:41;;;;;;;8.20;1.23;;;6.90;99.50;;;;;;5091484;28;20162;-79
2022/12/28 02:32:21;;;;;;;8.02;1.23;;;6.90;99.50;;;;;;5091405;28;20028;-77
2022/12/28 02:35:01;;;;;;;3.33;0.98;;;6.90;99.60;;;;;;5091345;28;20066;-80
2022/12/28 02:37:31;;;;;;;5.50;1.17;;;6.90;99.60;;;;;;5091213;28;20039;-77
2022/12/28 02:40:29;;;;;;;6.57;1.48;;;6.90;99.60;;;;;;5090962;28;20067;-78
2022/12/28 02:42:55;;;;;;;4.45;1.05;;;6.90;99.60;;;;;;5090646;28;20032;-79
2022/12/28 02:51:28;;;;;;;8.70;1.38;;;7.00;99.80;;;;;;5091332;28;20027;-80
2022/12/28 02:56:06;;;;;;;3.97;1.23;;;7.00;99.70;;;;;;5089789;28;20012;-79
2022/12/28 02:57:27;;;;;;;5.95;1.25;;;7.00;99.70;;;;;;5090530;28;20123;-77
2022/12/28 03:00:05;;;;;;;7.53;1.50;;;7.00;99.70;;;;;;5089655;28;20453;-78
2022/12/28 03:02:50;;;;;;;4.78;1.40;;;7.00;99.70;;;;;;5091045;28;20023;-76
2022/12/28 03:08:25;;;;;;;10.02;1.67;;;7.10;99.80;;;;;;5090801;28;20046;-79
2022/12/28 03:11:09;;;;;;;7.65;1.20;;;7.30;99.90;;;;;;5089028;28;20042;-78
2022/12/28 03:13:47;;;;;;;5.60;1.40;;;7.10;99.80;;;;;;5094779;28;20561;-77
2022/12/28 03:16:28;;;;;;;8.35;1.38;;;7.20;99.80;;;;;;5094593;28;20036;-78
2022/12/28 03:32:58;;;;;;;2.97;1.45;;;7.20;99.90;;;;;;5093953;28;20030;-79
2022/12/28 03:35:36;;;;;;;6.68;1.50;;;7.20;99.90;;;;;;5094724;28;20353;-78
2022/12/28 03:38:03;;;;;;;10.85;1.73;;;7.30;99.90;;;;;;5093174;28;20036;-76
2022/12/28 03:40:48;;;;;;;4.72;1.38;;;7.30;99.90;;;;;;5094294;28;20130;-79
2022/12/28 03:46:08;;;;;;;4.22;1.45;;;7.30;99.90;;;;;;5094380;28;20043;-78
2022/12/28 03:48:36;;;;;;;5.43;1.80;;;7.30;99.90;;;;;;5094272;28;20473;-79
2022/12/28 03:51:02;;;;;;;6.65;1.85;;;7.30;99.90;;;;;;5094550;28;20095;-79
2022/12/28 03:53:39;;;;;;;4.10;1.42;;;7.20;99.90;;;;;;5093408;28;20153;-80
2022/12/28 03:56:10;;;;;;;7.43;1.65;;;7.30;99.90;;;;;;5094106;28;20031;-80
2022/12/28 03:58:36;;;;;;;3.75;1.60;;;7.20;99.90;;;;;;5094005;28;20028;-78
2022/12/28 04:01:02;;;;;;;5.53;1.50;;;7.20;99.90;;;;;;5092968;28;20032;-78
2022/12/28 04:03:28;;;;;;;4.57;1.83;;;7.20;99.90;;;;;;5092996;28;20024;-80
2022/12/28 04:05:54;;;;;;;4.82;1.55;;;7.20;99.90;;;;;;5093958;28;20032;-79
2022/12/28 04:08:20;;;;;;;7.13;1.83;;;7.30;99.90;;;;;;5093117;28;20048;-79
2022/12/28 04:10:46;;;;;;;7.05;2.30;;;7.30;99.90;;;;;;5092816;28;20079;-79
2022/12/28 04:13:11;;;;;;;2.28;1.30;;;7.20;99.90;;;;;;5092352;28;20055;-79
2022/12/28 04:15:37;;;;;;;3.63;1.55;;;7.30;99.90;;;;;;5092455;28;20051;-77
2022/12/28 04:18:03;;;;;;;6.55;2.00;;;7.40;99.90;;;;;;5093443;28;20478;-79
2022/12/28 04:20:28;;;;;;;5.57;1.52;;;7.30;99.90;;;;;;5094079;28;20024;-79
2022/12/28 04:22:54;;;;;;;6.75;1.75;;;7.30;99.90;;;;;;5093491;28;20118;-77
2022/12/28 04:25:19;;;;;;;4.47;1.65;;;7.30;99.90;;;;;;5093633;28;20064;-76
2022/12/28 04:27:45;;;;;;;3.58;1.50;;;7.40;99.90;;;;;;5093690;28;20478;-78
2022/12/28 04:30:11;;;;;;;4.28;2.08;;;7.30;99.90;;;;;;5092561;28;20035;-78
2022/12/28 04:32:37;;;;;;;3.03;1.73;;;7.30;99.90;;;;;;5093765;28;20038;-80
2022/12/28 04:35:03;;;;;;;5.45;1.83;;;7.30;99.90;;;;;;5093330;28;20028;-77
2022/12/28 04:37:29;;;;;;;8.35;2.20;;;7.30;99.90;;;;;;5093319;28;20056;-78
2022/12/28 04:39:55;;;;;;;8.05;2.17;;;7.30;99.90;;;;;;5093234;28;20095;-78
2022/12/28 04:42:20;;;;;;;3.95;1.88;;;7.20;99.90;;;;;;5093437;28;20036;-77
2022/12/28 04:44:46;;;;;;;4.00;1.75;;;7.30;99.90;;;;;;5092500;28;20039;-77
2022/12/28 04:47:12;;;;;;;5.03;1.50;;;7.30;99.90;;;;;;5093543;28;20024;-78
2022/12/28 04:49:38;;;;;;;6.03;2.28;;;7.20;99.90;;;;;;5092060;28;20024;-79
2022/12/28 04:52:03;;;;;;;3.92;1.92;;;7.30;99.90;;;;;;5092091;28;20135;-77
2022/12/28 04:54:29;;;;;;;8.38;2.05;;;7.30;99.90;;;;;;5092918;28;20039;-79
2022/12/28 04:56:54;;;;;;;5.35;1.98;;;7.30;99.90;;;;;;5091408;28;20127;-80
2022/12/28 04:59:20;;;;;;;3.40;1.42;;;7.40;99.90;;;;;;5092805;28;20119;-77
2022/12/28 05:01:46;;;;;;;3.45;1.85;;;7.10;99.90;;;;;;5093049;28;20478;-78
2022/12/28 05:04:12;;;;;;;3.67;1.55;;;7.40;99.90;;;;;;5093088;28;20048;-77
2022/12/28 05:06:37;;;;;;;7.38;1.83;;;7.40;99.90;;;;;;5092657;28;20032;-77
2022/12/28 05:09:03;;;;;;;5.03;1.55;;;7.40;99.90;;;;;;5092744;28;20016;-78
2022/12/28 05:11:30;;;;;;;6.63;1.80;;;7.50;99.90;;;;;;5093370;28;20016;-78
2022/12/28 05:13:58;;;;;;;11.43;1.75;;;7.50;99.90;;;;;;5092028;28;20317;-79
2022/12/28 05:16:26;;;;;;;5.28;1.52;;;7.60;99.90;;;;;;5093143;28;20374;-77
2022/12/28 05:18:53;;;;;;;6.18;1.50;;;7.60;99.90;;;;;;5091954;28;20453;-79
2022/12/28 05:21:21;;;;;;;4.75;2.00;;;7.60;99.90;;;;;;5091282;28;20024;-77
2022/12/28 05:23:48;;;;;;;4.13;1.55;;;7.60;99.90;;;;;;5092070;28;20295;-78
2022/12/28 05:26:17;;;;;;;6.57;1.77;;;7.60;99.90;;;;;;5091450;28;20040;-75
2022/12/28 05:28:43;;;;;;;5.07;1.30;;;7.70;99.90;;;;;;5091406;28;20032;-79
2022/12/28 05:31:12;;;;;;;7.80;2.35;;;7.70;99.90;;;;;;5091239;28;20040;-77
2022/12/28 05:33:38;;;;;;;6.53;1.70;;;7.70;99.90;;;;;;5092427;28;20043;-77
2022/12/28 05:36:09;;;;;;;3.50;1.58;;;7.80;99.90;;;;;;5091524;28;20024;-78
2022/12/28 05:38:35;;;;;;;2.20;1.42;;;7.80;99.90;;;;;;5093182;28;20342;-78
2022/12/28 05:41:05;;;;;;;3.03;1.60;;;7.80;99.90;;;;;;5091042;28;20028;-79
2022/12/28 05:43:31;;;;;;;3.47;2.10;;;7.90;99.90;;;;;;5090688;28;20170;-77
2022/12/28 05:46:02;;;;;;;3.90;1.60;;;7.90;99.90;;;;;;5091969;28;20122;-78
2022/12/28 05:48:33;;;;;;;6.60;1.90;;;7.90;99.90;;;;;;5092388;28;20374;-76
2022/12/28 05:51:07;;;;;;;7.15;1.80;;;7.90;99.90;;;;;;5091048;28;20028;-78
2022/12/28 05:53:34;;;;;;;6.47;1.77;;;7.90;99.90;;;;;;5091397;28;20024;-77
2022/12/28 05:56:09;;;;;;;7.55;2.45;;;8.20;99.90;;;;;;5091967;28;20078;-77
2022/12/28 05:58:34;;;;;;;6.20;1.98;;;7.80;99.90;;;;;;5091809;28;20024;-77
2022/12/28 06:01:09;;;;;;;5.85;2.10;;;7.80;99.90;;;;;;5091413;28;20032;-78
2022/12/28 06:03:35;;;;;;;6.95;1.70;;;7.80;99.90;;;;;;5090588;28;20050;-77
2022/12/28 06:06:06;;;;;;;3.33;2.30;;;7.80;99.90;;;;;;5091970;28;20205;-78
2022/12/28 06:08:31;;;;;;;5.53;1.58;;;7.80;99.90;;;;;;5091151;28;20025;-79
2022/12/28 06:11:02;;;;;;;6.50;2.17;;;7.80;99.90;;;;;;5091826;28;20028;-78
2022/12/28 06:13:35;;;;;;;5.10;1.92;;;7.80;99.90;;;;;;5081547;28;20040;-78
2022/12/28 06:16:24;;;;;;;7.60;2.05;;;7.80;99.90;;;;;;5090576;28;20128;-77
2022/12/28 06:18:51;;;;;;;6.70;2.22;;;7.80;99.90;;;;;;5091561;28;20053;-78
2022/12/28 06:21:29;;;;;;;5.50;2.10;;;7.80;99.90;;;;;;5090243;28;20028;-78
2022/12/28 06:23:57;;;;;;;2.92;1.70;;;7.80;99.90;;;;;;5091533;28;20028;-78
2022/12/28 06:26:24;;;;;;;7.20;2.13;;;7.80;99.90;;;;;;5092137;28;20024;-78
2022/12/28 06:28:50;;;;;;;2.65;1.88;;;7.80;99.90;;;;;;5091215;28;20477;-79
2022/12/28 06:31:19;;;;;;;4.18;2.20;;;7.90;99.90;;;;;;5089858;28;20068;-78
2022/12/28 06:33:45;;;;;;;2.90;1.67;;;7.80;99.90;;;;;;5090049;28;20407;-77
2022/12/28 06:36:17;;;;;;;6.18;2.00;;;7.90;99.90;;;;;;5090219;28;20116;-78
2022/12/28 06:38:43;;;;;;;6.15;2.17;;;7.80;99.90;;;;;;5091015;28;20442;-79
2022/12/28 06:41:11;;;;;;;4.25;2.72;;;7.90;99.90;;;;;;5090967;28;20377;-78
2022/12/28 06:43:38;;;;;;;;;;;8.00;99.90;;;;;;5090373;28;20028;-76
2022/12/28 06:46:04;;;;;;;5.13;2.15;;;7.90;99.90;;;;;;5090563;28;19908;-79
2022/12/28 06:48:33;;;;;;;3.53;1.88;;;7.80;99.90;;;;;;5091099;28;20031;-78
2022/12/28 06:50:59;;;;;;;3.45;1.67;;;7.80;99.90;;;;;;5091232;28;20024;-77
2022/12/28 06:53:27;;;;;;;3.15;1.83;;;7.90;99.90;;;;;;5090492;28;20362;-77
2022/12/28 06:55:54;;;;;;;6.45;1.90;;;7.90;99.90;;;;;;5089893;28;20458;-77
2022/12/28 06:58:21;;;;;;;6.53;1.90;;;7.80;99.90;;;;;;5090709;28;20047;-80
2022/12/28 07:00:47;;;;;;;5.75;1.95;;;7.90;99.90;;;;;;5089836;28;20265;-77
2022/12/28 07:03:12;;;;;;;3.50;1.83;;;7.80;99.90;;;;;;5089985;28;20039;-79
2022/12/28 07:05:38;;;;;;;6.43;2.75;;;7.80;99.90;;;;;;5090459;28;20029;-78
2022/12/28 07:08:04;;;;;;;5.47;2.03;;;8.00;99.90;;;;;;5090983;28;20055;-78
2022/12/28 07:10:31;;;;;;;4.72;2.00;;;7.90;99.90;;;;;;5090526;28;20085;-79
2022/12/28 07:12:57;;;;;;;2.78;1.67;;;7.90;99.90;;;;;;5090523;28;20054;-77
2022/12/28 07:15:22;;;;;;;3.47;1.92;;;7.90;99.90;;;;;;5090775;28;20040;-78
2022/12/28 07:17:48;;;;;;;4.57;1.92;;;7.90;99.90;;;;;;5090279;28;20071;-77
2022/12/28 07:20:14;;;;;;;10.75;4.00;;;8.00;99.90;;;;;;5090954;28;20099;-78
2022/12/28 07:22:42;;;;;;;6.30;1.95;;;7.90;99.90;;;;;;5089644;28;20054;-78
2022/12/28 07:25:09;;;;;;;4.00;1.98;;;7.90;99.90;;;;;;5091056;28;20334;-77
2022/12/28 07:27:35;;;;;;;4.07;1.75;;;7.90;99.90;;;;;;5090838;28;20042;-77
2022/12/28 07:30:01;;;;;;;3.72;1.80;;;8.00;99.90;;;;;;5090930;28;20036;-77
2022/12/28 07:32:26;;;;;;;4.35;2.05;;;7.90;99.90;;;;;;5091262;28;20115;-77
2022/12/28 07:34:55;;;;;;;6.90;2.58;;;7.90;99.90;;;;;;5089981;28;20028;-75
2022/12/28 07:37:21;;;;;;;10.48;2.00;;;8.00;99.90;;;;;;5089476;28;20420;-77
2022/12/28 07:39:47;;;;;;;3.53;1.90;;;8.00;99.90;;;;;;5089749;28;20032;-78
2022/12/28 07:42:12;;;;;;;3.60;2.08;;;8.00;99.90;;;;;;5088938;28;20116;-78
2022/12/28 07:44:41;;;;;;;3.72;2.38;;;8.00;99.90;;;;;;5089974;28;20024;-79
2022/12/28 07:47:07;;;;;;;3.35;1.88;;;8.00;99.90;;;;;;5090731;28;20362;-78
2022/12/28 07:49:33;;;;;;;6.38;1.63;;;8.00;99.90;;;;;;5090232;28;20044;-77
2022/12/28 07:51:58;;;;;;;4.22;1.73;;;8.10;99.90;;;;;;5090421;28;20032;-78
2022/12/28 07:54:24;;;;;;;2.20;1.30;;;8.10;99.90;;;;;;5089592;28;20100;-78
2022/12/28 07:56:50;;;;;;;3.85;1.90;;;8.10;99.90;;;;;;5090836;28;20067;-78
2022/12/28 07:59:15;;;;;;;6.78;1.83;;;8.20;99.90;;;;;;5093774;28;20028;-78
2022/12/28 08:01:41;;;;;;;2.47;1.50;;;8.10;99.90;;;;;;5094156;28;20103;-77
2022/12/28 08:04:10;;;;;;;4.07;2.13;;;8.10;99.90;;;;;;5094067;28;20028;-78
2022/12/28 08:06:39;;;;;;;4.55;1.65;;;8.20;99.90;;;;;;5094231;28;20051;-77
2022/12/28 08:09:07;;;;;;;5.78;1.42;;;8.20;99.90;;;;;;5094129;28;20020;-78
2022/12/28 08:11:36;;;;;;;4.63;2.00;;;8.10;99.90;;;;;;5094410;28;20449;-78
2022/12/28 08:14:03;;;;;;;4.53;1.98;;;8.20;99.90;;;;;;5093816;28;20040;-78
2022/12/28 08:16:34;;;;;;;7.05;2.15;;;8.20;99.90;;;;;;5094231;28;20512;-77
2022/12/28 08:18:59;;;;;;;4.28;1.88;;;8.20;99.90;;;;;;5092841;28;20024;-77
2022/12/28 08:21:32;;;;;;;2.80;1.70;;;8.30;99.90;;;;;;5092663;28;20034;-79
2022/12/28 08:23:59;;;;;;;5.15;1.75;;;8.20;99.90;;;;;;5092879;28;20020;-77
2022/12/28 08:26:39;;;;;;;3.72;1.60;;;8.20;99.90;;;;;;5093116;28;20027;-77
2022/12/28 08:29:09;;;;;;;3.40;1.83;;;8.30;99.90;;;;;;5093799;28;20500;-77
2022/12/28 08:31:37;;;;;;;6.75;1.63;;;8.30;99.90;;;;;;5093623;28;20107;-78
2022/12/28 08:34:05;;;;;;;4.15;1.70;;;8.40;99.90;;;;;;5093346;28;20032;-77
2022/12/28 08:36:31;;;;;;;9.90;2.95;;;8.40;99.90;;;;;;5093596;28;20373;-77
2022/12/28 08:38:58;;;;;;;1.75;1.40;;;8.40;99.90;;;;;;5092175;28;20028;-79
2022/12/28 08:41:25;;;;;;;3.95;1.63;;;8.40;99.90;;;;;;5092521;28;20135;-78
2022/12/28 08:43:52;;;;;;;3.55;1.60;;;8.40;99.90;;;;;;5093205;28;20093;-77
2022/12/28 08:46:20;;;;;;;2.30;1.30;;;8.40;99.90;;;;;;5093067;28;20028;-77
2022/12/28 08:48:47;;;;;;;;;;;8.50;99.90;;;;;;5093509;28;20036;-78
2022/12/28 08:51:24;;;;;;;3.10;1.33;;;8.50;99.90;;;;;;5092358;28;19924;-79
2022/12/28 08:53:50;;;;;;;2.17;1.27;;;8.50;99.90;;;;;;5093877;28;20032;-76
2022/12/28 08:56:25;;;;;;;3.45;1.50;;;8.50;99.90;;;;;;5092459;28;20028;-78
2022/12/28 08:58:59;;;;;;;2.45;1.27;;;8.50;99.90;;;;;;5091909;28;20028;-78
2022/12/28 09:01:27;;;;;;;3.72;1.67;;;8.50;99.90;;;;;;5091866;28;20081;-79
2022/12/28 09:03:55;;;;;;;2.30;1.40;;;8.50;99.90;;;;;;5093174;28;20454;-77
2022/12/28 09:06:27;;;;;;;8.48;2.20;;;8.50;99.90;;;;;;5092835;28;20101;-78
2022/12/28 09:08:54;;;;;;;3.03;1.70;;;8.50;99.90;;;;;;5090687;28;20441;-78
2022/12/28 09:11:20;;;;;;;2.40;1.60;;;8.60;99.90;;;;;;5093184;28;20079;-77
2022/12/28 09:13:46;;;;;;;2.70;1.83;;;8.60;99.90;;;;;;5091261;28;20101;-78
2022/12/28 09:16:15;;;;;;;4.93;1.65;;;8.70;99.90;;;;;;5092603;28;20036;-77
2022/12/28 09:18:42;;;;;;;1.95;1.52;;;8.60;99.90;;;;;;5092796;28;20036;-77
2022/12/28 09:21:18;;;;;;;4.10;1.65;;;8.60;99.90;;;;;;5093065;28;20062;-79
2022/12/28 09:23:45;;;;;;;3.60;1.45;;;8.70;99.90;;;;;;5093430;28;20483;-78
2022/12/28 09:26:12;;;;;;;3.80;1.73;;;8.70;99.90;;;;;;5091400;28;20050;-78
2022/12/28 09:28:49;;;;;;;8.20;2.03;;;8.70;99.90;;;;;;5092678;28;20032;-78
2022/12/28 09:31:19;;;;;;;1.95;1.52;;;8.70;99.90;;;;;;5091439;28;20043;-77
2022/12/28 09:34:00;;;;;;;4.88;2.10;;;8.70;99.90;;;;;;5092186;28;20484;-78
2022/12/28 09:36:31;;;;;;;5.85;3.40;;;8.90;99.90;;;;;;5091404;28;20036;-79
2022/12/28 09:38:58;;;;;;;8.32;4.65;;;8.80;99.90;;;;;;5092364;28;20024;-78
2022/12/28 09:41:51;;;;;;;5.05;1.73;;;8.80;99.90;;;;;;5091408;28;20111;-79
2022/12/28 09:44:42;;;;;;;3.80;1.98;;;8.80;99.90;;;;;;5090786;28;20111;-78
2022/12/28 09:47:17;;;;;;;3.42;1.80;;;8.80;99.90;;;;;;5090882;28;20107;-78
2022/12/28 09:49:45;;;;;;;3.85;1.90;;;8.80;99.90;;;;;;5090624;28;20053;-78
2022/12/28 09:52:23;;;;;;;4.28;1.90;;;8.80;99.90;;;;;;5090471;28;20469;-78
2022/12/28 09:54:49;;;;;;;4.15;1.80;;;8.80;99.90;;;;;;5091952;28;20084;-77
2022/12/28 09:57:17;;;;;;;4.40;1.80;;;8.80;99.90;;;;;;5091493;28;20032;-77
2022/12/28 09:59:44;;;;;;;7.35;3.97;;;8.90;99.90;;;;;;5091867;28;20031;-77
2022/12/28 10:02:28;;;;;;;3.88;2.13;;;9.00;99.90;;;;;;5091835;28;20466;-76
2022/12/28 10:04:54;;;;;;;5.95;1.73;;;9.00;99.90;;;;;;5093132;28;20417;-78
2022/12/28 10:07:20;;;;;;;4.03;1.55;;;9.00;99.90;;;;;;5091356;28;20380;-78
2022/12/28 10:09:49;;;;;;;5.20;1.88;;;9.00;99.90;;;;;;5090426;28;20044;-78
2022/12/28 10:12:19;;;;;;;3.65;1.27;;;9.10;99.90;;;;;;5091408;28;20469;-78
2022/12/28 10:14:46;;;;;;;3.75;1.55;;;9.10;99.90;;;;;;5091264;28;20311;-77
2022/12/28 10:17:16;;;;;;;5.38;2.17;;;9.10;99.90;;;;;;5091375;28;20044;-78
2022/12/28 10:19:47;;;;;;;3.00;1.60;;;9.20;99.90;;;;;;5091443;28;20025;-78
2022/12/28 10:22:19;;;;;;;3.42;1.67;;;9.20;99.90;;;;;;5090147;28;20503;-77
2022/12/28 10:24:46;;;;;;;3.78;1.60;;;9.20;99.90;;;;;;5091164;28;20032;-77
2022/12/28 10:27:23;;;;;;;2.30;1.27;;;9.20;99.90;;;;;;5090250;28;20035;-77
2022/12/28 10:29:52;;;;;;;2.97;1.65;;;9.30;99.90;;;;;;5091803;28;20031;-78
2022/12/28 10:32:18;;;;;;;5.25;1.58;;;9.30;99.90;;;;;;5090076;28;20039;-79
2022/12/28 10:35:03;;;;;;;3.58;1.35;;;9.40;99.90;;;;;;5090140;28;20055;-78
2022/12/28 10:37:35;;;;;;;4.60;1.40;;;9.40;99.90;;;;;;5091127;28;20146;-79
2022/12/28 10:40:32;;;;;;;;;;;;;;;;;;;;;
2022/12/28 10:42:59;;;;;;;3.72;1.35;;;9.60;99.90;;;;;;5091347;28;20377;-78
2022/12/28 10:45:28;;;;;;;4.88;1.33;;;9.50;99.90;;;;;;5089801;28;20028;-77
2022/12/28 10:47:55;;;;;;;2.92;1.25;;;9.50;99.90;;;;;;5090867;28;20482;-76
2022/12/28 10:50:41;;;;;;;1.52;1.33;;;9.50;99.90;;;;;;5091358;28;20040;-78
2022/12/28 10:53:15;;;;;;;1.90;1.30;;;9.50;99.90;;;;;;5091500;28;20416;-79
2022/12/28 10:55:41;;;;;;;3.28;1.27;;;9.70;99.90;;;;;;5091287;28;20025;-79
2022/12/28 10:58:33;;;;;;;1.33;0.98;;;9.60;99.90;;;;;;5090752;28;20123;-79
2022/12/28 11:01:03;;;;;;;3.72;1.30;;;9.60;99.90;;;;;;5088222;28;20035;-78
2022/12/28 11:03:34;;;;;;;1.42;0.90;;;9.60;99.90;;;;;;5090894;28;20036;-78
2022/12/28 11:06:21;;;;;;;1.67;0.93;;;9.60;99.90;;;;;;5090987;28;20028;-79
2022/12/28 11:09:25;;;;;;;4.80;1.43;;;9.60;99.90;;;;;;5090965;28;20016;-78
2022/12/28 11:11:53;;;;;;;1.85;1.13;;;9.60;99.90;;;;;;5089447;28;20047;-79
2022/12/28 11:14:29;;;;;;;;;;;9.70;99.90;;;;;;5091607;28;20032;-77
2022/12/28 11:16:55;;;;;;;2.17;1.00;;;9.70;99.90;;;;;;5089236;28;20018;-78
2022/12/28 11:19:23;;;;;;;5.05;0.98;;;9.60;99.90;;;;;;5090548;28;20032;-79
2022/12/28 11:21:56;;;;;;;2.40;1.50;;;9.60;99.90;;;;;;5089899;28;20028;-78
2022/12/28 11:24:26;;;;;;;3.60;1.05;;;9.60;99.90;;;;;;5090885;28;20253;-78
2022/12/28 11:26:56;;;;;;;4.75;2.60;;;9.60;99.90;;;;;;5091561;28;20028;-78
2022/12/28 11:29:22;;;;;;;1.38;0.98;;;9.60;99.90;;;;;;5091320;28;20036;-79
2022/12/28 11:32:01;;;;;;;1.38;1.17;;;9.60;99.90;;;;;;5090929;28;20435;-79
2022/12/28 11:34:30;;;;;;;4.05;1.40;;;9.60;99.90;;;;;;5094267;28;20043;-79
2022/12/28 11:36:56;;;;;;;4.35;1.10;;;9.60;99.90;;;;;;5093819;28;20040;-77
2022/12/28 11:39:25;;;;;;;2.83;1.25;;;9.60;99.90;;;;;;5093857;28;20081;-79
2022/12/28 11:41:58;;;;;;;2.05;1.25;;;9.60;99.90;;;;;;5094049;28;20035;-77
2022/12/28 11:44:31;;;;;;;2.67;1.35;;;9.60;99.90;;;;;;5093764;28;20044;-79
2022/12/28 11:47:15;;;;;;;1.92;1.17;;;9.60;99.90;;;;;;5093336;28;20361;-78
2022/12/28 11:49:46;;;;;;;1.23;0.93;;;9.60;99.90;;;;;;5092631;28;20040;-79
2022/12/28 11:52:26;;;;;;;4.15;1.30;;;9.80;99.90;;;;;;5094523;28;20161;-78
2022/12/28 11:54:54;;;;;;;2.58;1.40;;;9.80;99.90;;;;;;5094233;28;20061;-78
2022/12/28 11:57:40;;;;;;;1.77;1.13;;;9.80;99.90;;;;;;5093334;28;20085;-79
2022/12/28 12:00:18;;;;;;;1.83;1.00;;;9.60;99.90;;;;;;5093934;28;20353;-79
2022/12/28 12:02:56;;;;;;;5.07;1.50;;;9.60;99.90;;;;;;5094428;28;20034;-79
2022/12/28 12:05:37;;;;;;;3.03;0.90;;;9.60;99.90;;;;;;5092645;28;20374;-79
2022/12/28 12:08:14;;;;;;;2.33;0.90;;;9.60;99.90;;;;;;5093737;28;20043;-80
2022/12/28 12:10:44;;;;;;;1.65;0.85;;;9.60;99.90;;;;;;5093739;28;20061;-80
2022/12/28 12:13:38;;;;;;;2.60;0.68;;;9.60;99.90;;;;;;5093328;28;20040;-79
2022/12/28 12:16:15;;;;;;;4.13;0.40;;;9.70;99.90;;;;;;5090966;28;20127;-80
2022/12/28 12:18:54;;;;;;;0.60;0.52;;;9.70;99.90;;;;;;5092507;28;20672;-80
2022/12/28 12:21:33;;;;;;;2.00;1.00;;;9.70;99.90;;;;;;5092557;28;20108;-79
2022/12/28 12:24:25;;;;;;;2.38;1.02;;;9.70;99.90;;;;;;5093207;28;20032;-80
2022/12/28 12:27:03;;;;;;;2.38;1.00;;;9.70;99.90;;;;;;5092788;28;20036;-79
2022/12/28 12:29:42;;;;;;;2.42;1.13;;;9.70;99.90;;;;;;5092129;28;20039;-78
2022/12/28 12:32:22;;;;;;;1.33;0.70;;;9.70;99.90;;;;;;5093081;28;20148;-78
2022/12/28 12:35:01;;;;;;;2.28;1.00;;;9.70;99.90;;;;;;5093358;28;20036;-80
2022/12/28 12:37:35;;;;;;;1.27;0.57;;;9.70;99.90;;;;;;5092983;28;20048;-79
2022/12/28 12:40:26;;;;;;;2.55;0.90;;;9.70;99.90;;;;;;5091927;28;20104;-78
2022/12/28 12:43:01;;;;;;;2.30;0.75;;;9.70;99.90;;;;;;5093054;28;20040;-79
2022/12/28 12:46:15;;;;;;;1.20;0.70;;;9.70;99.90;;;;;;5092874;28;20036;-78
2022/12/28 12:48:43;;;;;;;1.58;0.98;;;9.70;99.90;;;;;;5087859;28;20052;-77
2022/12/28 12:51:27;;;;;;;1.35;0.85;;;9.70;99.90;;;;;;5091869;28;20115;-78
2022/12/28 12:54:22;;;;;;;2.70;0.93;;;9.70;99.90;;;;;;5091988;28;20024;-78
2022/12/28 12:56:55;;;;;;;2.55;1.27;;;9.70;99.90;;;;;;5082647;28;20039;-79
2022/12/28 12:59:43;;;;;;;1.38;0.70;;;9.70;99.90;;;;;;5092145;28;20047;-79
2022/12/28 13:02:46;;;;;;;1.40;0.70;;;9.70;99.90;;;;;;5093086;28;20024;-79
2022/12/28 13:05:22;;;;;;;2.72;0.93;;;9.70;99.90;;;;;;5092950;28;20028;-79
2022/12/28 13:07:49;;;;;;;1.63;0.90;;;9.70;99.90;;;;;;5092816;28;20048;-79
2022/12/28 13:10:23;;;;;;;1.73;0.90;;;9.70;99.90;;;;;;5091522;28;20024;-78
2022/12/28 13:12:49;;;;;;;1.30;0.82;;;9.70;99.90;;;;;;5091702;28;20047;-79
2022/12/28 13:15:17;;;;;;;3.78;1.20;;;9.70;99.90;;;;;;5095083;28;20024;-79
2022/12/28 13:18:01;;;;;;;3.50;1.35;;;9.70;99.90;;;;;;5097866;28;20111;-78
2022/12/28 13:20:27;;;;;;;1.55;0.98;;;9.80;99.90;;;;;;5096871;28;20441;-78
2022/12/28 13:22:53;;;;;;;2.72;1.00;;;9.90;99.90;;;;;;5095963;28;20028;-77
2022/12/28 13:25:33;;;;;;;1.92;1.00;;;9.70;99.90;;;;;;5094840;28;20028;-78
2022/12/28 13:28:02;;;;;;;1.25;0.90;;;9.80;99.90;;;;;;5095569;28;20218;-77
2022/12/28 13:30:28;;;;;;;2.33;1.30;;;9.70;99.90;;;;;;5097906;28;20442;-79
2022/12/28 13:32:58;;;;;;;2.20;1.20;;;9.80;99.90;;;;;;5099769;28;20020;-77
2022/12/28 13:35:30;;;;;;;3.88;1.40;;;9.80;99.90;;;;;;5097416;28;20372;-77
2022/12/28 13:38:11;;;;;;;1.42;0.90;;;9.80;99.90;;;;;;5096226;28;20100;-77
2022/12/28 13:40:38;;;;;;;0.90;0.70;;;9.90;99.90;;;;;;5095698;28;20036;-79
2022/12/28 13:43:44;;;;;;;2.60;0.95;;;9.80;99.90;;;;;;5094944;28;20034;-78